createdAt,value
2022-09-12T00:01:09.313Z,7.70
2022-09-12T00:03:37.502Z,7.40
2022-09-12T00:06:10.330Z,6.70
2022-09-12T00:08:38.374Z,8.77
2022-09-12T00:11:09.973Z,6.27
2022-09-12T00:13:41.707Z,4.90
2022-09-12T00:16:17.326Z,7.47
2022-09-12T00:18:47.034Z,6.40
2022-09-12T00:21:15.923Z,5.97
2022-09-12T00:23:44.505Z,7.63
2022-09-12T00:26:14.400Z,11.40
2022-09-12T00:28:42.900Z,6.40
2022-09-12T00:31:12.452Z,6.80
2022-09-12T00:33:40.980Z,7.77
2022-09-12T00:36:12.024Z,6.37
2022-09-12T00:38:42.037Z,8.70
2022-09-12T00:41:17.300Z,14.00
2022-09-12T00:43:47.808Z,13.33
2022-09-12T00:46:27.257Z,5.57
2022-09-12T00:48:59.217Z,7.30
2022-09-12T00:51:27.782Z,7.93
2022-09-12T00:53:56.853Z,7.20
2022-09-12T00:56:30.398Z,6.70
2022-09-12T00:59:03.628Z,5.30
2022-09-12T01:01:32.784Z,8.20
2022-09-12T01:04:01.461Z,6.10
2022-09-12T01:06:33.969Z,8.90
2022-09-12T01:09:04.050Z,7.77
2022-09-12T01:11:36.554Z,6.77
2022-09-12T01:14:07.008Z,11.03
2022-09-12T01:16:37.667Z,7.67
2022-09-12T01:19:20.153Z,8.50
2022-09-12T01:22:00.609Z,5.97
2022-09-12T01:24:45.121Z,8.53
2022-09-12T01:27:36.805Z,9.27
2022-09-12T01:30:27.548Z,5.13
2022-09-12T01:33:31.281Z,7.17
2022-09-12T01:36:17.109Z,7.50
2022-09-12T01:38:50.199Z,5.90
2022-09-12T01:41:26.910Z,10.80
2022-09-12T01:44:03.063Z,4.17
2022-09-12T01:46:36.803Z,4.80
2022-09-12T01:49:15.078Z,4.27
2022-09-12T01:51:49.314Z,4.37
2022-09-12T01:54:22.451Z,2.90
2022-09-12T01:56:56.280Z,3.60
2022-09-12T01:59:29.371Z,2.33
2022-09-12T02:02:03.379Z,3.30
2022-09-12T02:04:37.593Z,2.73
2022-09-12T02:07:12.731Z,4.00
2022-09-12T02:09:46.483Z,3.17
2022-09-12T02:12:18.887Z,2.17
2022-09-12T02:14:51.644Z,3.30
2022-09-12T02:17:22.780Z,4.27
2022-09-12T02:19:56.772Z,3.97
2022-09-12T02:22:29.247Z,4.00
2022-09-12T02:25:00.206Z,3.20
2022-09-12T02:27:33.817Z,5.83
2022-09-12T02:30:01.976Z,5.00
2022-09-12T02:32:33.532Z,6.80
2022-09-12T02:35:08.637Z,3.77
2022-09-12T02:37:52.469Z,3.27
2022-09-12T02:40:20.582Z,4.00
2022-09-12T02:42:48.602Z,6.67
2022-09-12T02:45:18.381Z,6.27
2022-09-12T02:47:50.000Z,5.47
2022-09-12T02:50:19.805Z,3.83
2022-09-12T02:52:48.621Z,3.93
2022-09-12T02:55:17.347Z,5.50
2022-09-12T02:57:45.277Z,6.17
2022-09-12T03:00:14.669Z,2.77
2022-09-12T03:03:05.980Z,3.83
2022-09-12T03:05:40.078Z,3.90
2022-09-12T03:08:33.607Z,4.97
2022-09-12T03:11:18.874Z,5.40
2022-09-12T03:13:55.395Z,8.73
2022-09-12T03:16:33.325Z,6.53
2022-09-12T03:19:07.308Z,8.87
2022-09-12T03:21:50.793Z,7.37
2022-09-12T03:24:21.934Z,4.37
2022-09-12T03:26:55.821Z,9.43
2022-09-12T03:29:25.291Z,7.13
2022-09-12T03:31:54.810Z,4.43
2022-09-12T03:34:23.796Z,5.60
2022-09-12T03:36:55.299Z,9.23
2022-09-12T03:39:26.339Z,5.70
2022-09-12T03:41:54.679Z,4.70
2022-09-12T03:44:22.940Z,6.13
2022-09-12T03:46:51.269Z,7.33
2022-09-12T03:49:19.233Z,5.83
2022-09-12T03:51:47.171Z,6.63
2022-09-12T03:54:16.427Z,10.73
2022-09-12T03:56:44.334Z,4.87
2022-09-12T03:59:12.288Z,10.00
2022-09-12T04:01:41.649Z,5.57
2022-09-12T04:04:10.148Z,9.23
2022-09-12T04:06:38.080Z,10.00
2022-09-12T04:09:06.065Z,8.13
2022-09-12T04:11:36.749Z,10.07
2022-09-12T04:14:04.623Z,12.03
2022-09-12T04:16:33.221Z,8.20
2022-09-12T04:19:02.464Z,6.03
2022-09-12T04:21:30.942Z,7.90
2022-09-12T04:23:58.876Z,8.40
2022-09-12T04:26:29.696Z,9.03
2022-09-12T04:28:59.198Z,8.30
2022-09-12T04:31:27.592Z,9.00
2022-09-12T04:33:56.565Z,9.50
2022-09-12T04:36:25.192Z,8.27
2022-09-12T04:38:53.638Z,6.93
2022-09-12T04:41:23.679Z,8.40
2022-09-12T04:43:54.152Z,14.30
2022-09-12T04:46:23.404Z,7.67
2022-09-12T04:48:56.063Z,9.40
2022-09-12T04:51:27.895Z,7.63
2022-09-12T04:53:57.646Z,9.53
2022-09-12T04:56:26.845Z,7.83
2022-09-12T04:58:54.889Z,5.37
2022-09-12T05:01:24.327Z,7.00
2022-09-12T05:03:52.826Z,9.70
2022-09-12T05:06:22.694Z,9.93
2022-09-12T05:08:52.085Z,7.87
2022-09-12T05:11:24.923Z,11.93
2022-09-12T05:13:54.955Z,8.80
2022-09-12T05:16:25.826Z,7.43
2022-09-12T05:18:54.007Z,9.63
2022-09-12T05:21:24.339Z,11.77
2022-09-12T05:23:52.798Z,9.20
2022-09-12T05:26:21.432Z,9.00
2022-09-12T05:28:50.586Z,9.33
2022-09-12T05:31:20.061Z,14.60
2022-09-12T05:33:51.639Z,16.97
2022-09-12T05:36:21.715Z,12.13
2022-09-12T05:38:50.024Z,20.43
2022-09-12T05:41:24.189Z,22.50
2022-09-12T05:43:54.328Z,15.90
2022-09-12T05:46:24.269Z,15.47
2022-09-12T05:48:56.468Z,16.20
2022-09-12T05:51:26.676Z,11.30
2022-09-12T05:54:01.720Z,11.23
2022-09-12T05:56:31.187Z,12.47
2022-09-12T05:59:01.595Z,11.30
2022-09-12T06:01:31.344Z,8.90
2022-09-12T06:04:02.448Z,9.50
2022-09-12T06:06:32.211Z,11.27
2022-09-12T06:09:03.280Z,9.77
2022-09-12T06:11:33.752Z,15.40
2022-09-12T06:14:02.340Z,12.97
2022-09-12T06:16:32.745Z,6.97
2022-09-12T06:19:04.301Z,8.30
2022-09-12T06:21:32.342Z,8.47
2022-09-12T06:24:00.293Z,8.13
2022-09-12T06:26:29.381Z,10.37
2022-09-12T06:28:58.883Z,7.37
2022-09-12T06:31:28.756Z,8.73
2022-09-12T06:33:58.120Z,8.33
2022-09-12T06:36:29.716Z,6.60
2022-09-12T06:38:59.373Z,5.40
2022-09-12T06:41:31.219Z,8.63
2022-09-12T06:44:00.414Z,7.50
2022-09-12T06:46:28.725Z,10.50
2022-09-12T06:48:57.427Z,5.10
2022-09-12T06:51:27.083Z,8.20
2022-09-12T06:53:56.845Z,7.57
2022-09-12T06:56:26.442Z,5.03
2022-09-12T06:58:56.687Z,7.90
2022-09-12T07:01:26.301Z,6.20
2022-09-12T07:03:56.497Z,8.07
2022-09-12T07:06:26.124Z,9.30
2022-09-12T07:08:55.393Z,8.10
2022-09-12T07:11:25.978Z,9.13
2022-09-12T07:13:56.056Z,6.87
2022-09-12T07:16:24.293Z,5.43
2022-09-12T07:18:53.798Z,7.70
2022-09-12T07:21:22.670Z,7.60
2022-09-12T07:23:51.802Z,6.40
2022-09-12T07:26:21.099Z,6.83
2022-09-12T07:28:53.438Z,7.17
2022-09-12T07:31:23.202Z,8.67
2022-09-12T07:33:54.623Z,8.67
2022-09-12T07:36:25.279Z,7.20
2022-09-12T07:38:57.800Z,8.47
2022-09-12T07:41:28.902Z,7.87
2022-09-12T07:43:58.988Z,9.03
2022-09-12T07:46:29.504Z,9.37
2022-09-12T07:48:59.216Z,7.10
2022-09-12T07:51:28.846Z,6.50
2022-09-12T07:53:57.634Z,11.90
2022-09-12T07:56:31.216Z,12.50
2022-09-12T07:59:00.787Z,7.63
2022-09-12T08:01:28.768Z,6.50
2022-09-12T08:03:58.117Z,6.00
2022-09-12T08:06:27.188Z,5.97
2022-09-12T08:08:57.185Z,6.00
2022-09-12T08:11:27.918Z,6.43
2022-09-12T08:13:57.562Z,8.90
2022-09-12T08:16:29.567Z,8.33
2022-09-12T08:18:57.749Z,7.00
2022-09-12T08:21:28.755Z,7.80
2022-09-12T08:23:58.500Z,15.10
2022-09-12T08:26:28.261Z,9.27
2022-09-12T08:28:56.463Z,11.13
2022-09-12T08:31:26.743Z,8.63
2022-09-12T08:33:57.439Z,6.97
2022-09-12T08:36:27.654Z,8.90
2022-09-12T08:38:59.552Z,11.67
2022-09-12T08:41:34.790Z,7.90
2022-09-12T08:44:37.206Z,8.67
2022-09-12T08:47:17.371Z,5.90
2022-09-12T08:49:54.711Z,6.00
2022-09-12T08:52:28.508Z,8.37
2022-09-12T08:54:57.416Z,5.40
2022-09-12T08:57:26.902Z,10.77
2022-09-12T08:59:55.524Z,4.07
2022-09-12T09:02:42.067Z,7.23
2022-09-12T09:05:20.006Z,3.53
2022-09-12T09:08:11.876Z,3.57
2022-09-12T09:10:49.869Z,7.20
2022-09-12T09:14:05.025Z,3.13
2022-09-12T09:16:36.169Z,3.90
2022-09-12T09:19:06.833Z,4.20
2022-09-12T09:21:42.208Z,7.47
2022-09-12T09:24:13.792Z,3.33
2022-09-12T09:26:47.104Z,3.90
2022-09-12T09:29:20.390Z,3.90
2022-09-12T09:31:53.046Z,2.50
2022-09-12T09:34:22.614Z,3.50
2022-09-12T09:36:52.667Z,5.43
2022-09-12T09:39:33.099Z,4.00
2022-09-12T09:42:23.093Z,7.00
2022-09-12T09:44:55.353Z,3.60
2022-09-12T09:47:23.402Z,3.83
2022-09-12T09:49:51.277Z,10.23
2022-09-12T09:52:25.544Z,4.20
2022-09-12T09:54:57.559Z,4.20
2022-09-12T09:57:43.382Z,2.40
2022-09-12T10:00:31.796Z,3.27
2022-09-12T10:03:29.332Z,2.13
2022-09-12T10:06:01.265Z,2.87
2022-09-12T10:08:31.005Z,2.80
2022-09-12T10:11:02.826Z,2.70
2022-09-12T10:13:37.580Z,5.70
2022-09-12T10:16:19.120Z,2.13
2022-09-12T10:18:47.780Z,3.07
2022-09-12T10:21:29.571Z,2.87
2022-09-12T10:24:21.759Z,3.70
2022-09-12T10:26:56.746Z,2.00
2022-09-12T10:29:28.476Z,2.73
2022-09-12T10:32:00.658Z,1.70
2022-09-12T10:34:33.429Z,2.97
2022-09-12T10:37:05.359Z,2.50
2022-09-12T10:39:36.022Z,1.53
2022-09-12T10:42:05.473Z,2.20
2022-09-12T10:44:35.223Z,1.90
2022-09-12T10:47:23.135Z,4.27
2022-09-12T10:49:51.231Z,4.60
2022-09-12T10:52:24.122Z,2.00
2022-09-12T10:54:52.182Z,3.83
2022-09-12T10:57:52.636Z,2.17
2022-09-12T11:00:27.696Z,2.27
2022-09-12T11:03:16.360Z,3.80
2022-09-12T11:05:56.247Z,2.33
2022-09-12T11:08:53.500Z,5.33
2022-09-12T11:11:37.141Z,1.63
2022-09-12T11:14:25.227Z,2.40
2022-09-12T11:17:01.340Z,1.80
2022-09-12T11:19:54.924Z,1.77
2022-09-12T11:22:46.855Z,2.23
2022-09-12T11:25:24.733Z,1.40
2022-09-12T11:28:13.653Z,2.00
2022-09-12T11:30:52.866Z,4.20
2022-09-12T11:33:33.620Z,2.60
2022-09-12T11:36:06.017Z,1.73
2022-09-12T11:38:48.361Z,2.10
2022-09-12T11:41:20.255Z,1.90
2022-09-12T11:43:53.223Z,3.13
2022-09-12T11:46:27.424Z,3.27
2022-09-12T11:48:59.853Z,1.67
2022-09-12T11:51:34.192Z,1.83
2022-09-12T11:54:14.854Z,3.90
2022-09-12T11:56:47.078Z,2.83
2022-09-12T11:59:27.490Z,2.33
2022-09-12T12:02:00.794Z,1.20
2022-09-12T12:04:37.945Z,1.33
2022-09-12T12:07:10.445Z,1.30
2022-09-12T12:09:47.448Z,1.60
2022-09-12T12:12:20.333Z,1.57
2022-09-12T12:14:51.313Z,1.90
2022-09-12T12:17:21.892Z,2.20
2022-09-12T12:20:04.746Z,1.13
2022-09-12T12:22:35.912Z,1.67
2022-09-12T12:25:29.010Z,1.50
2022-09-12T12:27:59.167Z,1.80
2022-09-12T12:31:02.245Z,2.03
2022-09-12T12:34:09.377Z,1.40
2022-09-12T12:36:40.236Z,1.20
2022-09-12T12:39:46.782Z,1.47
2022-09-12T12:43:04.142Z,1.77
2022-09-12T12:46:12.425Z,1.60
2022-09-12T12:49:04.820Z,2.43
2022-09-12T12:51:40.717Z,3.80
2022-09-12T12:54:34.760Z,1.23
2022-09-12T12:57:05.948Z,1.10
2022-09-12T12:59:34.549Z,1.10
2022-09-12T13:02:02.510Z,1.50
2022-09-12T13:04:33.959Z,4.83
2022-09-12T13:07:08.175Z,1.50
2022-09-12T13:09:44.231Z,1.90
2022-09-12T13:12:19.401Z,2.50
2022-09-12T13:14:53.767Z,1.40
2022-09-12T13:17:30.268Z,1.60
2022-09-12T13:20:27.160Z,2.40
2022-09-12T13:22:56.706Z,1.50
2022-09-12T13:25:29.566Z,1.13
2022-09-12T13:28:06.436Z,1.10
2022-09-12T13:30:36.657Z,1.57
2022-09-12T13:33:12.534Z,1.50
2022-09-12T13:36:16.471Z,0.90
2022-09-12T13:38:59.473Z,1.63
2022-09-12T13:41:42.483Z,1.30
2022-09-12T13:44:14.095Z,1.27
2022-09-12T13:46:42.782Z,2.07
2022-09-12T13:49:21.313Z,1.90
2022-09-12T13:52:01.114Z,3.00
2022-09-12T13:54:29.436Z,2.60
2022-09-12T13:56:58.604Z,1.63
2022-09-12T13:59:26.789Z,1.13
2022-09-12T14:01:55.033Z,1.20
2022-09-12T14:04:48.875Z,1.20
2022-09-12T14:07:22.134Z,2.10
2022-09-12T14:09:55.942Z,1.43
2022-09-12T14:12:27.130Z,1.27
2022-09-12T14:14:55.031Z,2.47
2022-09-12T14:17:29.732Z,0.93
2022-09-12T14:19:59.415Z,1.10
2022-09-12T14:22:34.808Z,3.03
2022-09-12T14:25:04.026Z,0.90
2022-09-12T14:27:37.309Z,1.50
2022-09-12T14:30:08.954Z,2.10
2022-09-12T14:32:37.186Z,1.53
2022-09-12T14:35:06.528Z,3.53
2022-09-12T14:37:35.875Z,2.10
2022-09-12T14:40:05.232Z,2.40
2022-09-12T14:42:35.221Z,1.07
2022-09-12T14:45:06.385Z,2.43
2022-09-12T14:47:40.051Z,1.53
2022-09-12T14:50:17.375Z,1.10
2022-09-12T14:52:46.704Z,0.90
2022-09-12T14:55:27.552Z,1.03
2022-09-12T14:58:13.295Z,1.40
2022-09-12T15:01:02.996Z,1.40
2022-09-12T15:03:33.576Z,1.20
2022-09-12T15:06:03.081Z,1.37
2022-09-12T15:08:33.066Z,2.50
2022-09-12T15:11:01.245Z,1.53
2022-09-12T15:13:30.955Z,0.87
2022-09-12T15:16:00.589Z,2.37
2022-09-12T15:18:29.989Z,1.50
2022-09-12T15:21:02.807Z,1.70
2022-09-12T15:23:36.590Z,1.00
2022-09-12T15:26:05.215Z,1.60
2022-09-12T15:28:33.970Z,1.47
2022-09-12T15:31:07.018Z,1.50
2022-09-12T15:33:35.226Z,1.53
2022-09-12T15:36:03.645Z,3.70
2022-09-12T15:38:32.896Z,1.40
2022-09-12T15:41:01.843Z,1.07
2022-09-12T15:43:29.732Z,2.07
2022-09-12T15:45:59.266Z,1.30
2022-09-12T15:48:27.264Z,1.60
2022-09-12T15:51:01.336Z,1.60
2022-09-12T15:53:29.291Z,1.17
2022-09-12T15:55:58.624Z,1.50
2022-09-12T15:58:30.408Z,1.80
2022-09-12T16:00:58.290Z,1.50
2022-09-12T16:03:27.952Z,2.40
2022-09-12T16:05:57.931Z,2.63
2022-09-12T16:08:26.217Z,2.20
2022-09-12T16:10:56.185Z,1.50
2022-09-12T16:13:26.471Z,1.57
2022-09-12T16:15:58.415Z,1.70
2022-09-12T16:18:26.785Z,1.73
2022-09-12T16:20:54.992Z,1.40
2022-09-12T16:23:23.059Z,3.00
2022-09-12T16:25:58.072Z,2.30
2022-09-12T16:28:27.394Z,2.13
2022-09-12T16:30:59.500Z,1.77
2022-09-12T16:33:28.192Z,1.47
2022-09-12T16:36:03.425Z,3.10
2022-09-12T16:38:31.778Z,1.93
2022-09-12T16:41:03.555Z,2.40
2022-09-12T16:43:34.590Z,3.70
2022-09-12T16:46:03.976Z,1.93
2022-09-12T16:48:32.687Z,1.73
2022-09-12T16:51:01.982Z,1.97
2022-09-12T16:53:31.436Z,5.67
2022-09-12T16:55:59.533Z,2.13
2022-09-12T16:58:28.117Z,3.73
2022-09-12T17:01:03.419Z,7.00
2022-09-12T17:03:31.632Z,2.97
2022-09-12T17:06:00.829Z,6.43
2022-09-12T17:08:29.157Z,3.20
2022-09-12T17:11:01.152Z,1.77
2022-09-12T17:13:46.584Z,1.60
2022-09-12T17:16:19.227Z,1.83
2022-09-12T17:18:47.533Z,2.20
2022-09-12T17:21:16.206Z,1.93
2022-09-12T17:23:44.149Z,1.43
2022-09-12T17:26:12.820Z,2.03
2022-09-12T17:28:41.545Z,1.83
2022-09-12T17:31:12.067Z,2.10
2022-09-12T17:33:41.606Z,3.07
2022-09-12T17:36:12.052Z,3.13
2022-09-12T17:38:40.788Z,5.17
2022-09-12T17:41:15.968Z,3.97
2022-09-12T17:43:45.116Z,3.07
2022-09-12T17:46:13.437Z,1.33
2022-09-12T17:48:42.983Z,1.40
2022-09-12T17:51:13.392Z,2.30
2022-09-12T17:53:41.893Z,2.50
2022-09-12T17:56:10.929Z,2.60
2022-09-12T17:58:39.159Z,3.80
2022-09-12T18:01:26.776Z,1.63
2022-09-12T18:03:56.660Z,1.30
2022-09-12T18:06:24.952Z,1.90
2022-09-12T18:08:53.054Z,3.03
2022-09-12T18:11:21.052Z,2.60
2022-09-12T18:13:49.128Z,4.60
2022-09-12T18:16:20.015Z,1.70
2022-09-12T18:18:50.916Z,1.40
2022-09-12T18:21:20.409Z,1.70
2022-09-12T18:23:48.622Z,2.83
2022-09-12T18:26:16.551Z,5.03
2022-09-12T18:28:45.428Z,1.50
2022-09-12T18:31:16.274Z,2.33
2022-09-12T18:33:44.671Z,1.87
2022-09-12T18:36:14.344Z,1.53
2022-09-12T18:38:44.561Z,1.87
2022-09-12T18:41:13.693Z,1.20
2022-09-12T18:43:42.040Z,2.57
2022-09-12T18:46:12.393Z,1.67
2022-09-12T18:48:40.921Z,7.23
2022-09-12T18:51:12.134Z,2.43
2022-09-12T18:53:40.254Z,1.40
2022-09-12T18:56:11.148Z,1.47
2022-09-12T18:58:40.449Z,3.77
2022-09-12T19:01:12.930Z,1.60
2022-09-12T19:03:41.305Z,1.70
2022-09-12T19:06:11.715Z,1.77
2022-09-12T19:08:40.620Z,1.60
2022-09-12T19:11:11.141Z,1.60
2022-09-12T19:13:41.035Z,1.40
2022-09-12T19:16:10.266Z,2.30
2022-09-12T19:18:39.390Z,1.80
2022-09-12T19:21:15.238Z,2.00
2022-09-12T19:23:43.406Z,1.97
2022-09-12T19:26:14.899Z,1.90
2022-09-12T19:28:43.698Z,2.60
2022-09-12T19:31:13.815Z,2.03
2022-09-12T19:33:42.159Z,2.47
2022-09-12T19:36:27.579Z,8.67
2022-09-12T19:39:00.699Z,7.20
2022-09-12T19:41:30.159Z,2.03
2022-09-12T19:43:58.353Z,4.93
2022-09-12T19:46:27.793Z,2.20
2022-09-12T19:48:55.883Z,2.93
2022-09-12T19:51:25.205Z,2.40
2022-09-12T19:53:53.120Z,2.30
2022-09-12T19:56:21.618Z,1.90
2022-09-12T19:58:56.098Z,1.70
2022-09-12T20:01:28.187Z,3.03
2022-09-12T20:03:56.867Z,2.67
2022-09-12T20:06:25.467Z,2.93
2022-09-12T20:08:54.278Z,3.00
2022-09-12T20:11:23.936Z,3.40
2022-09-12T20:13:53.422Z,2.87
2022-09-12T20:16:24.385Z,4.03
2022-09-12T20:18:55.542Z,2.00
2022-09-12T20:21:30.873Z,12.20
2022-09-12T20:24:02.183Z,5.27
2022-09-12T20:26:30.446Z,2.80
2022-09-12T20:29:00.271Z,2.67
2022-09-12T20:31:28.538Z,2.33
2022-09-12T20:33:56.786Z,3.70
2022-09-12T20:36:25.287Z,2.50
2022-09-12T20:38:56.627Z,1.90
2022-09-12T20:41:26.293Z,2.60
2022-09-12T20:43:55.873Z,5.17
2022-09-12T20:46:27.161Z,3.33
2022-09-12T20:48:55.671Z,1.97
2022-09-12T20:51:24.582Z,2.13
2022-09-12T20:53:54.961Z,1.70
2022-09-12T20:56:23.619Z,1.80
2022-09-12T20:58:51.724Z,1.93
2022-09-12T21:01:19.844Z,2.03
2022-09-12T21:03:49.672Z,2.63
2022-09-12T21:06:18.780Z,2.20
2022-09-12T21:08:47.989Z,2.43
2022-09-12T21:11:16.535Z,3.70
2022-09-12T21:13:44.461Z,2.50
2022-09-12T21:16:14.524Z,2.10
2022-09-12T21:18:42.791Z,2.10
2022-09-12T21:21:13.510Z,1.93
2022-09-12T21:23:42.317Z,3.67
2022-09-12T21:26:10.310Z,3.43
2022-09-12T21:28:38.325Z,9.50
2022-09-12T21:31:06.454Z,2.47
2022-09-12T21:33:34.377Z,3.10
2022-09-12T21:36:03.692Z,1.87
2022-09-12T21:38:34.747Z,1.77
2022-09-12T21:41:07.418Z,2.60
2022-09-12T21:43:35.419Z,1.50
2022-09-12T21:46:04.184Z,1.10
2022-09-12T21:48:32.813Z,1.90
2022-09-12T21:51:01.213Z,1.73
2022-09-12T21:53:29.614Z,3.73
2022-09-12T21:56:03.748Z,3.17
2022-09-12T21:58:31.697Z,2.03
2022-09-12T22:01:00.878Z,2.17
2022-09-12T22:03:29.389Z,1.93
2022-09-12T22:06:01.686Z,2.80
2022-09-12T22:08:30.935Z,9.60
2022-09-12T22:11:00.849Z,1.60
2022-09-12T22:13:31.403Z,1.43
2022-09-12T22:16:00.627Z,4.27
2022-09-12T22:18:28.531Z,4.50
2022-09-12T22:21:03.672Z,2.63
2022-09-12T22:23:49.491Z,2.07
2022-09-12T22:26:18.103Z,0.97
2022-09-12T22:28:48.164Z,1.83
2022-09-12T22:31:16.688Z,2.10
2022-09-12T22:33:45.554Z,1.10
2022-09-12T22:36:13.835Z,1.27
2022-09-12T22:38:41.907Z,1.70
2022-09-12T22:41:11.684Z,1.20
2022-09-12T22:43:39.582Z,1.83
2022-09-12T22:46:09.998Z,1.43
2022-09-12T22:48:38.288Z,1.40
2022-09-12T22:51:07.013Z,1.30
2022-09-12T22:53:35.603Z,2.10
2022-09-12T22:56:05.142Z,5.63
2022-09-12T22:58:33.462Z,0.87
2022-09-12T23:01:01.401Z,1.87
2022-09-12T23:03:31.541Z,1.20
2022-09-12T23:05:59.638Z,2.13
2022-09-12T23:08:29.601Z,1.20
2022-09-12T23:11:02.670Z,1.10
2022-09-12T23:13:31.049Z,1.60
2022-09-12T23:15:59.863Z,1.40
2022-09-12T23:18:28.370Z,0.93
2022-09-12T23:21:02.939Z,2.40
2022-09-12T23:23:31.549Z,2.67
2022-09-12T23:26:05.784Z,1.90
2022-09-12T23:28:33.832Z,1.33
2022-09-12T23:31:02.078Z,1.67
2022-09-12T23:33:30.945Z,1.87
2022-09-12T23:36:01.267Z,1.90
2022-09-12T23:38:29.965Z,6.43
2022-09-12T23:40:58.068Z,3.43
2022-09-12T23:43:26.701Z,2.27
2022-09-12T23:45:54.676Z,2.73
2022-09-12T23:48:22.631Z,4.20
2022-09-12T23:50:50.816Z,2.27
2022-09-12T23:53:21.075Z,2.67
2022-09-12T23:55:49.446Z,2.87
2022-09-12T23:58:17.951Z,2.30
